sensor_id;sensor_type;location;lat;lon;timestamp;pressure;altitude;pressure_sealevel;temperature;humidity
68141;BME280;54941;52.220;104.306;2023-05-01T02:16:18;94924.31;;;6.51;62.52
68141;BME280;54941;52.220;104.306;2023-05-01T02:18:46;94932.75;;;6.31;64.29
68141;BME280;54941;52.220;104.306;2023-05-01T02:21:14;94947.97;;;6.18;63.55
68141;BME280;54941;52.220;104.306;2023-05-01T02:23:41;94944.13;;;6.61;62.15
68141;BME280;54941;52.220;104.306;2023-05-01T02:26:12;94936.63;;;6.49;62.42
68141;BME280;54941;52.220;104.306;2023-05-01T02:28:40;94943.28;;;5.97;62.84
68141;BME280;54941;52.220;104.306;2023-05-01T02:31:06;94940.75;;;6.26;63.29
68141;BME280;54941;52.220;104.306;2023-05-01T02:33:34;94937.00;;;6.04;63.38
68141;BME280;54941;52.220;104.306;2023-05-01T02:36:00;94946.09;;;6.22;63.19
68141;BME280;54941;52.220;104.306;2023-05-01T02:38:28;94945.78;;;6.01;62.04
68141;BME280;54941;52.220;104.306;2023-05-01T02:40:56;94949.06;;;6.09;60.93
68141;BME280;54941;52.220;104.306;2023-05-01T02:43:24;94958.00;;;6.02;60.07
68141;BME280;54941;52.220;104.306;2023-05-01T02:45:52;94957.75;;;6.11;60.37
68141;BME280;54941;52.220;104.306;2023-05-01T02:48:22;94973.94;;;5.59;61.10
68141;BME280;54941;52.220;104.306;2023-05-01T02:50:52;94966.75;;;6.03;58.25
68141;BME280;54941;52.220;104.306;2023-05-01T02:53:19;94969.22;;;5.38;59.35
68141;BME280;54941;52.220;104.306;2023-05-01T02:55:46;94977.63;;;5.86;58.71
68141;BME280;54941;52.220;104.306;2023-05-01T02:58:16;94980.38;;;5.81;56.29
68141;BME280;54941;52.220;104.306;2023-05-01T03:00:44;94983.03;;;5.78;55.21
68141;BME280;54941;52.220;104.306;2023-05-01T03:03:11;94976.66;;;5.92;55.40
68141;BME280;54941;52.220;104.306;2023-05-01T03:05:37;94975.75;;;5.90;52.77
68141;BME280;54941;52.220;104.306;2023-05-01T03:08:05;94977.63;;;5.50;50.75
68141;BME280;54941;52.220;104.306;2023-05-01T03:10:32;94974.56;;;5.69;51.06
68141;BME280;54941;52.220;104.306;2023-05-01T03:12:58;94980.97;;;5.93;51.37
68141;BME280;54941;52.220;104.306;2023-05-01T03:15:24;94987.59;;;5.36;51.48
68141;BME280;54941;52.220;104.306;2023-05-01T03:17:51;94978.06;;;5.69;51.32
68141;BME280;54941;52.220;104.306;2023-05-01T03:20:17;94984.59;;;5.51;51.98
68141;BME280;54941;52.220;104.306;2023-05-01T03:22:43;94997.19;;;5.36;53.04
68141;BME280;54941;52.220;104.306;2023-05-01T03:25:11;94998.47;;;5.55;53.63
68141;BME280;54941;52.220;104.306;2023-05-01T03:27:38;94994.19;;;5.86;53.18
68141;BME280;54941;52.220;104.306;2023-05-01T03:30:05;94989.19;;;5.42;54.73
68141;BME280;54941;52.220;104.306;2023-05-01T03:32:32;94984.13;;;5.71;55.06
68141;BME280;54941;52.220;104.306;2023-05-01T03:34:58;94977.47;;;6.57;53.12
68141;BME280;54941;52.220;104.306;2023-05-01T03:37:24;94972.28;;;6.23;53.74
68141;BME280;54941;52.220;104.306;2023-05-01T03:39:51;94969.28;;;6.06;53.75
68141;BME280;54941;52.220;104.306;2023-05-01T03:42:18;94959.31;;;6.19;53.88
68141;BME280;54941;52.220;104.306;2023-05-01T03:44:45;94959.03;;;6.60;53.30
68141;BME280;54941;52.220;104.306;2023-05-01T03:47:11;94949.03;;;6.73;51.35
68141;BME280;54941;52.220;104.306;2023-05-01T03:49:37;94940.41;;;6.68;52.20
68141;BME280;54941;52.220;104.306;2023-05-01T03:52:04;94926.13;;;7.34;49.44
68141;BME280;54941;52.220;104.306;2023-05-01T03:54:30;94926.28;;;7.01;49.41
68141;BME280;54941;52.220;104.306;2023-05-01T03:56:56;94903.59;;;7.53;49.86
68141;BME280;54941;52.220;104.306;2023-05-01T03:59:24;94890.91;;;7.91;48.31
68141;BME280;54941;52.220;104.306;2023-05-01T04:01:51;94875.53;;;8.29;48.80
68141;BME280;54941;52.220;104.306;2023-05-01T04:04:17;94878.09;;;7.82;49.46
68141;BME280;54941;52.220;104.306;2023-05-01T04:06:43;94877.13;;;7.84;50.26
68141;BME280;54941;52.220;104.306;2023-05-01T04:09:09;94883.25;;;9.25;48.01
68141;BME280;54941;52.220;104.306;2023-05-01T04:11:36;94899.03;;;9.27;47.35
68141;BME280;54941;52.220;104.306;2023-05-01T04:14:02;94887.66;;;9.47;47.36
68141;BME280;54941;52.220;104.306;2023-05-01T04:16:30;94897.25;;;9.27;49.56
68141;BME280;54941;52.220;104.306;2023-05-01T04:18:56;94882.28;;;9.06;47.97
68141;BME280;54941;52.220;104.306;2023-05-01T04:21:23;94885.94;;;8.80;50.06
68141;BME280;54941;52.220;104.306;2023-05-01T04:23:50;94871.59;;;8.87;50.06
68141;BME280;54941;52.220;104.306;2023-05-01T04:26:16;94861.69;;;8.94;49.01
68141;BME280;54941;52.220;104.306;2023-05-01T04:28:42;94865.44;;;9.10;48.23
68141;BME280;54941;52.220;104.306;2023-05-01T04:37:19;94915.31;;;8.19;51.10
68141;BME280;54941;52.220;104.306;2023-05-01T04:39:45;94920.59;;;7.15;53.79
68141;BME280;54941;52.220;104.306;2023-05-01T04:42:11;94919.56;;;7.99;52.50
68141;BME280;54941;52.220;104.306;2023-05-01T04:44:38;94937.81;;;8.53;50.24
68141;BME280;54941;52.220;104.306;2023-05-01T04:47:04;94955.16;;;8.09;51.21
68141;BME280;54941;52.220;104.306;2023-05-01T04:49:30;94940.88;;;8.16;48.96
68141;BME280;54941;52.220;104.306;2023-05-01T04:51:57;94948.38;;;7.77;50.11
68141;BME280;54941;52.220;104.306;2023-05-01T04:54:24;94944.44;;;7.90;48.20
68141;BME280;54941;52.220;104.306;2023-05-01T04:56:51;94936.34;;;7.43;49.28
68141;BME280;54941;52.220;104.306;2023-05-01T04:59:17;94936.44;;;7.12;49.63
68141;BME280;54941;52.220;104.306;2023-05-01T05:01:43;94926.94;;;6.80;50.25
68141;BME280;54941;52.220;104.306;2023-05-01T05:04:10;94921.13;;;6.98;51.14
68141;BME280;54941;52.220;104.306;2023-05-01T05:06:36;94927.34;;;6.66;51.13
68141;BME280;54941;52.220;104.306;2023-05-01T05:09:02;94919.63;;;6.62;52.13
68141;BME280;54941;52.220;104.306;2023-05-01T05:11:30;94908.91;;;6.97;51.19
68141;BME280;54941;52.220;104.306;2023-05-01T05:13:56;94926.22;;;6.75;51.65
68141;BME280;54941;52.220;104.306;2023-05-01T05:16:23;94925.78;;;6.30;53.09
68141;BME280;54941;52.220;104.306;2023-05-01T05:18:49;94929.03;;;6.07;53.44
68141;BME280;54941;52.220;104.306;2023-05-01T05:21:15;94924.44;;;6.76;51.88
68141;BME280;54941;52.220;104.306;2023-05-01T05:23:42;94925.47;;;6.70;51.79
68141;BME280;54941;52.220;104.306;2023-05-01T05:26:08;94923.47;;;6.50;51.97
68141;BME280;54941;52.220;104.306;2023-05-01T05:28:36;94927.25;;;6.40;51.54
68141;BME280;54941;52.220;104.306;2023-05-01T05:31:02;94920.44;;;6.33;51.39
68141;BME280;54941;52.220;104.306;2023-05-01T05:33:28;94918.94;;;6.55;50.43
68141;BME280;54941;52.220;104.306;2023-05-01T05:35:56;94913.53;;;6.60;49.56
68141;BME280;54941;52.220;104.306;2023-05-01T05:38:23;94890.47;;;6.99;47.51
68141;BME280;54941;52.220;104.306;2023-05-01T05:40:49;94884.03;;;6.81;49.81
68141;BME280;54941;52.220;104.306;2023-05-01T05:43:15;94872.72;;;6.79;48.19
68141;BME280;54941;52.220;104.306;2023-05-01T05:45:43;94874.13;;;7.17;46.44
68141;BME280;54941;52.220;104.306;2023-05-01T05:48:09;94872.53;;;6.85;46.59
68141;BME280;54941;52.220;104.306;2023-05-01T05:50:36;94869.69;;;7.46;45.29
68141;BME280;54941;52.220;104.306;2023-05-01T05:53:02;94873.38;;;7.14;44.19
68141;BME280;54941;52.220;104.306;2023-05-01T05:55:28;94863.28;;;7.28;44.46
68141;BME280;54941;52.220;104.306;2023-05-01T05:57:55;94858.94;;;7.27;44.18
68141;BME280;54941;52.220;104.306;2023-05-01T06:00:21;94855.69;;;7.45;44.43
68141;BME280;54941;52.220;104.306;2023-05-01T06:02:49;94859.44;;;7.38;43.72
68141;BME280;54941;52.220;104.306;2023-05-01T06:05:15;94855.38;;;7.01;44.30
68141;BME280;54941;52.220;104.306;2023-05-01T06:07:42;94864.56;;;7.15;43.95
68141;BME280;54941;52.220;104.306;2023-05-01T06:10:09;94864.78;;;7.09;44.67
68141;BME280;54941;52.220;104.306;2023-05-01T06:12:35;94866.03;;;6.69;45.52
68141;BME280;54941;52.220;104.306;2023-05-01T06:15:01;94862.88;;;7.14;43.67
68141;BME280;54941;52.220;104.306;2023-05-01T06:17:30;94865.91;;;6.73;44.43
68141;BME280;54941;52.220;104.306;2023-05-01T06:19:58;94868.47;;;6.75;44.29
68141;BME280;54941;52.220;104.306;2023-05-01T06:22:24;94871.56;;;6.88;43.97
68141;BME280;54941;52.220;104.306;2023-05-01T06:24:51;94866.22;;;7.19;44.11
68141;BME280;54941;52.220;104.306;2023-05-01T06:27:17;94862.91;;;7.39;42.67
68141;BME280;54941;52.220;104.306;2023-05-01T06:29:43;94873.13;;;6.93;43.54
68141;BME280;54941;52.220;104.306;2023-05-01T06:32:09;94874.81;;;6.68;44.53
68141;BME280;54941;52.220;104.306;2023-05-01T06:34:36;94877.69;;;6.88;44.25
68141;BME280;54941;52.220;104.306;2023-05-01T06:37:03;94870.00;;;7.10;44.64
68141;BME280;54941;52.220;104.306;2023-05-01T06:39:30;94866.22;;;6.91;44.77
68141;BME280;54941;52.220;104.306;2023-05-01T06:41:56;94869.78;;;7.16;44.10
68141;BME280;54941;52.220;104.306;2023-05-01T06:44:23;94856.19;;;7.03;44.22
68141;BME280;54941;52.220;104.306;2023-05-01T06:46:49;94866.03;;;6.69;45.22
68141;BME280;54941;52.220;104.306;2023-05-01T06:49:15;94856.69;;;6.60;44.74
68141;BME280;54941;52.220;104.306;2023-05-01T06:51:41;94861.41;;;6.48;44.90
68141;BME280;54941;52.220;104.306;2023-05-01T06:54:09;94871.31;;;6.39;45.67
68141;BME280;54941;52.220;104.306;2023-05-01T06:56:35;94876.72;;;6.63;45.42
68141;BME280;54941;52.220;104.306;2023-05-01T06:59:02;94894.44;;;6.84;46.13
68141;BME280;54941;52.220;104.306;2023-05-01T07:01:28;94897.06;;;6.55;46.34
68141;BME280;54941;52.220;104.306;2023-05-01T07:03:55;94906.34;;;6.96;45.34
68141;BME280;54941;52.220;104.306;2023-05-01T07:06:21;94909.47;;;6.79;45.75
68141;BME280;54941;52.220;104.306;2023-05-01T07:08:47;94911.81;;;6.59;46.85
68141;BME280;54941;52.220;104.306;2023-05-01T07:11:15;94916.25;;;6.27;47.13
68141;BME280;54941;52.220;104.306;2023-05-01T07:13:41;94931.66;;;6.07;47.99
68141;BME280;54941;52.220;104.306;2023-05-01T07:16:07;94933.53;;;6.03;47.80
68141;BME280;54941;52.220;104.306;2023-05-01T07:18:34;94920.13;;;6.14;47.77
68141;BME280;54941;52.220;104.306;2023-05-01T07:21:00;94901.66;;;5.84;48.89
68141;BME280;54941;52.220;104.306;2023-05-01T07:23:26;94888.59;;;6.16;48.60
68141;BME280;54941;52.220;104.306;2023-05-01T07:25:53;94867.00;;;6.37;47.42
68141;BME280;54941;52.220;104.306;2023-05-01T07:28:20;94869.75;;;6.62;48.72
68141;BME280;54941;52.220;104.306;2023-05-01T07:30:47;94882.25;;;6.54;47.49
68141;BME280;54941;52.220;104.306;2023-05-01T07:33:13;94887.69;;;7.03;46.50
68141;BME280;54941;52.220;104.306;2023-05-01T07:35:39;94905.03;;;6.52;47.40
68141;BME280;54941;52.220;104.306;2023-05-01T07:38:06;94900.00;;;6.14;48.41
68141;BME280;54941;52.220;104.306;2023-05-01T07:40:32;94909.06;;;6.01;49.64
68141;BME280;54941;52.220;104.306;2023-05-01T07:42:59;94940.47;;;5.70;51.43
68141;BME280;54941;52.220;104.306;2023-05-01T07:45:26;94953.19;;;5.50;54.11
68141;BME280;54941;52.220;104.306;2023-05-01T07:47:53;94960.28;;;5.46;54.66
68141;BME280;54941;52.220;104.306;2023-05-01T07:50:19;94964.63;;;5.47;54.48
68141;BME280;54941;52.220;104.306;2023-05-01T07:52:45;94959.25;;;5.52;54.29
68141;BME280;54941;52.220;104.306;2023-05-01T07:55:12;94958.91;;;5.66;54.39
68141;BME280;54941;52.220;104.306;2023-05-01T07:57:38;94955.56;;;5.61;55.27
68141;BME280;54941;52.220;104.306;2023-05-01T08:00:06;94948.63;;;5.22;55.21
68141;BME280;54941;52.220;104.306;2023-05-01T08:02:34;94939.69;;;5.33;56.38
68141;BME280;54941;52.220;104.306;2023-05-01T08:05:00;94936.50;;;5.54;57.18
68141;BME280;54941;52.220;104.306;2023-05-01T08:07:26;94944.53;;;5.48;58.14
68141;BME280;54941;52.220;104.306;2023-05-01T08:09:53;94958.53;;;5.08;60.02
68141;BME280;54941;52.220;104.306;2023-05-01T08:12:19;94949.13;;;5.01;59.45
68141;BME280;54941;52.220;104.306;2023-05-01T08:14:45;94930.31;;;4.84;60.69
68141;BME280;54941;52.220;104.306;2023-05-01T08:17:11;94917.53;;;5.10;60.37
68141;BME280;54941;52.220;104.306;2023-05-01T08:19:39;94926.84;;;5.22;60.22
68141;BME280;54941;52.220;104.306;2023-05-01T08:22:05;94930.00;;;4.99;59.06
68141;BME280;54941;52.220;104.306;2023-05-01T08:24:32;94935.59;;;5.19;58.71
68141;BME280;54941;52.220;104.306;2023-05-01T08:26:58;94938.00;;;5.28;58.52
68141;BME280;54941;52.220;104.306;2023-05-01T08:29:24;94933.25;;;5.78;57.77
68141;BME280;54941;52.220;104.306;2023-05-01T08:31:50;94932.06;;;5.57;57.96
68141;BME280;54941;52.220;104.306;2023-05-01T08:34:17;94922.72;;;5.81;57.58
68141;BME280;54941;52.220;104.306;2023-05-01T08:36:44;94916.88;;;5.01;58.57
68141;BME280;54941;52.220;104.306;2023-05-01T08:39:11;94918.44;;;5.43;57.50
68141;BME280;54941;52.220;104.306;2023-05-01T08:41:37;94912.63;;;5.31;57.12
68141;BME280;54941;52.220;104.306;2023-05-01T08:44:05;94896.13;;;5.63;56.05
68141;BME280;54941;52.220;104.306;2023-05-01T08:46:41;94911.72;;;5.33;57.22
68141;BME280;54941;52.220;104.306;2023-05-01T08:49:11;94922.81;;;5.07;57.15
68141;BME280;54941;52.220;104.306;2023-05-01T08:51:39;94940.47;;;4.99;58.19
68141;BME280;54941;52.220;104.306;2023-05-01T08:54:08;94943.59;;;4.76;58.14
68141;BME280;54941;52.220;104.306;2023-05-01T08:56:36;94963.44;;;4.86;58.58
68141;BME280;54941;52.220;104.306;2023-05-01T09:09:37;94952.75;;;4.55;60.13
68141;BME280;54941;52.220;104.306;2023-05-01T09:12:10;94936.78;;;4.26;62.16
68141;BME280;54941;52.220;104.306;2023-05-01T09:14:38;94935.38;;;4.51;61.83
68141;BME280;54941;52.220;104.306;2023-05-01T09:17:04;94944.72;;;4.64;61.61
68141;BME280;54941;52.220;104.306;2023-05-01T09:19:31;94940.06;;;4.37;62.82
68141;BME280;54941;52.220;104.306;2023-05-01T09:21:57;94960.41;;;4.64;61.41
68141;BME280;54941;52.220;104.306;2023-05-01T09:32:12;94895.44;;;4.83;61.46
68141;BME280;54941;52.220;104.306;2023-05-01T23:18:58;95761.72;;;5.54;49.99
68141;BME280;54941;52.220;104.306;2023-05-01T23:21:25;95759.03;;;6.28;48.03
68141;BME280;54941;52.220;104.306;2023-05-01T23:23:51;95750.78;;;7.03;45.61
68141;BME280;54941;52.220;104.306;2023-05-01T23:26:23;95746.75;;;7.78;42.90
68141;BME280;54941;52.220;104.306;2023-05-01T23:28:50;95745.28;;;8.45;40.84
68141;BME280;54941;52.220;104.306;2023-05-01T23:31:20;95740.75;;;8.87;41.13
68141;BME280;54941;52.220;104.306;2023-05-01T23:33:47;95744.16;;;9.26;40.41
68141;BME280;54941;52.220;104.306;2023-05-01T23:36:15;95752.13;;;9.56;38.52
68141;BME280;54941;52.220;104.306;2023-05-01T23:38:42;95749.16;;;11.11;35.98
68141;BME280;54941;52.220;104.306;2023-05-01T23:41:08;95751.56;;;9.76;38.65
68141;BME280;54941;52.220;104.306;2023-05-01T23:43:35;95739.66;;;10.79;36.17
